createdAt,value
2018-09-15T00:01:52.352Z,7.87
2018-09-15T00:04:20.884Z,5.77
2018-09-15T00:06:49.681Z,6.57
2018-09-15T00:09:18.533Z,8.93
2018-09-15T00:11:47.083Z,7.33
2018-09-15T00:14:15.666Z,7.97
2018-09-15T00:16:44.179Z,8.70
2018-09-15T00:19:12.766Z,6.90
2018-09-15T00:21:41.429Z,8.67
2018-09-15T00:24:10.135Z,8.00
2018-09-15T00:26:38.659Z,9.33
2018-09-15T00:29:07.365Z,7.07
2018-09-15T00:31:35.858Z,7.80
2018-09-15T00:34:04.865Z,5.80
2018-09-15T00:36:33.427Z,7.00
2018-09-15T00:39:02.063Z,13.53
2018-09-15T00:41:30.607Z,7.67
2018-09-15T00:43:59.188Z,10.70
2018-09-15T00:46:27.922Z,7.37
2018-09-15T00:48:56.509Z,7.20
2018-09-15T00:51:25.137Z,15.57
2018-09-15T00:53:53.803Z,9.23
2018-09-15T00:56:22.361Z,9.10
2018-09-15T00:58:50.881Z,8.00
2018-09-15T01:01:19.403Z,8.90
2018-09-15T01:03:47.904Z,10.93
2018-09-15T01:06:16.796Z,14.27
2018-09-15T01:08:45.436Z,8.93
2018-09-15T01:11:14.271Z,8.23
2018-09-15T01:13:43.122Z,7.67
2018-09-15T01:16:11.630Z,11.97
2018-09-15T01:18:40.354Z,6.70
2018-09-15T01:21:09.121Z,10.57
2018-09-15T01:23:37.682Z,8.90
2018-09-15T01:26:06.327Z,6.10
2018-09-15T01:28:34.974Z,5.10
2018-09-15T01:31:03.455Z,7.73
2018-09-15T01:33:32.014Z,9.10
2018-09-15T01:36:00.582Z,12.57
2018-09-15T01:38:29.633Z,9.47
2018-09-15T01:40:58.187Z,16.23
2018-09-15T01:43:26.937Z,9.60
2018-09-15T01:45:55.530Z,10.20
2018-09-15T01:48:24.240Z,11.57
2018-09-15T01:50:52.798Z,8.90
2018-09-15T01:53:21.336Z,11.53
2018-09-15T01:55:50.203Z,11.20
2018-09-15T01:58:18.741Z,13.30
2018-09-15T02:00:47.286Z,14.87
2018-09-15T02:03:15.809Z,9.93
2018-09-15T02:05:44.325Z,9.60
2018-09-15T02:08:13.152Z,13.50
2018-09-15T02:10:41.787Z,8.83
2018-09-15T02:13:10.505Z,14.47
2018-09-15T02:15:39.179Z,10.97
2018-09-15T02:18:07.970Z,12.77
2018-09-15T02:20:36.565Z,11.67
2018-09-15T02:23:05.303Z,13.03
2018-09-15T02:25:34.144Z,8.83
2018-09-15T02:28:02.970Z,10.27
2018-09-15T02:30:31.535Z,14.80
2018-09-15T02:33:00.182Z,12.40
2018-09-15T02:35:28.699Z,12.70
2018-09-15T02:37:57.392Z,11.97
2018-09-15T02:40:26.065Z,11.50
2018-09-15T02:42:54.576Z,11.80
2018-09-15T02:45:23.088Z,10.13
2018-09-15T02:47:51.695Z,12.43
2018-09-15T02:50:20.229Z,15.10
2018-09-15T02:52:48.897Z,14.83
2018-09-15T02:55:17.805Z,10.77
2018-09-15T02:57:46.745Z,12.03
2018-09-15T03:00:15.542Z,9.87
2018-09-15T03:02:44.029Z,12.30
2018-09-15T03:05:12.566Z,13.97
2018-09-15T03:07:42.211Z,13.33
2018-09-15T03:10:10.919Z,14.30
2018-09-15T03:12:39.790Z,16.13
2018-09-15T03:15:08.639Z,14.97
2018-09-15T03:17:37.166Z,9.63
2018-09-15T03:20:06.127Z,11.77
2018-09-15T03:22:34.911Z,14.07
2018-09-15T03:25:03.641Z,11.73
2018-09-15T03:27:32.513Z,12.97
2018-09-15T03:30:01.054Z,16.40
2018-09-15T03:32:29.681Z,18.80
2018-09-15T03:34:58.234Z,10.60
2018-09-15T03:37:26.762Z,21.47
2018-09-15T03:39:55.271Z,10.80
2018-09-15T03:42:24.019Z,10.73
2018-09-15T03:44:52.780Z,16.57
2018-09-15T03:47:21.437Z,12.00
2018-09-15T03:49:49.942Z,15.20
2018-09-15T03:52:18.528Z,14.63
2018-09-15T03:54:47.140Z,11.70
2018-09-15T03:57:15.698Z,11.90
2018-09-15T03:59:44.340Z,18.70
2018-09-15T04:02:13.016Z,12.17
2018-09-15T04:04:41.522Z,13.60
2018-09-15T04:07:10.024Z,12.47
2018-09-15T04:09:38.590Z,13.90
2018-09-15T04:12:07.326Z,13.50
2018-09-15T04:14:35.905Z,13.03
2018-09-15T04:17:04.453Z,18.27
2018-09-15T04:19:33.964Z,14.40
2018-09-15T04:22:02.524Z,21.20
2018-09-15T04:24:41.676Z,15.77
2018-09-15T04:27:10.327Z,19.33
2018-09-15T05:08:27.935Z,11.00
2018-09-15T05:10:56.429Z,12.90
2018-09-15T05:13:24.911Z,13.67
2018-09-15T05:15:53.432Z,15.50
2018-09-15T05:18:22.340Z,13.67
2018-09-15T05:20:51.099Z,12.23
2018-09-15T05:23:22.962Z,17.50
2018-09-15T05:25:51.775Z,13.87
2018-09-15T05:28:20.611Z,17.50
2018-09-15T05:30:49.791Z,19.83
2018-09-15T05:33:18.346Z,16.67
2018-09-15T05:35:47.478Z,23.27
2018-09-15T05:38:17.994Z,14.10
2018-09-15T05:40:46.544Z,15.17
2018-09-15T05:43:15.089Z,16.60
2018-09-15T05:45:44.039Z,14.17
2018-09-15T05:48:12.534Z,16.63
2018-09-15T05:50:42.152Z,15.07
2018-09-15T05:53:10.886Z,16.13
2018-09-15T05:58:31.926Z,17.23
2018-09-15T06:01:03.164Z,18.23
2018-09-15T06:03:31.882Z,16.03
2018-09-15T06:06:01.123Z,15.97
2018-09-15T06:08:31.763Z,12.90
2018-09-15T06:11:01.021Z,12.20
2018-09-15T06:13:29.688Z,15.07
2018-09-15T06:15:58.186Z,19.03
2018-09-15T06:18:26.728Z,14.97
2018-09-15T06:20:55.304Z,17.17
2018-09-15T06:23:24.000Z,16.00
2018-09-15T06:25:52.505Z,22.13
2018-09-15T06:28:21.090Z,16.20
2018-09-15T06:30:49.921Z,23.27
2018-09-15T06:33:18.440Z,17.97
2018-09-15T06:35:46.936Z,19.20
2018-09-15T06:38:15.506Z,14.30
2018-09-15T06:40:44.091Z,15.83
2018-09-15T06:43:12.726Z,18.00
2018-09-15T06:45:41.300Z,16.67
2018-09-15T06:48:09.945Z,13.20
2018-09-15T06:50:38.441Z,16.03
2018-09-15T06:53:07.031Z,16.33
2018-09-15T06:55:35.556Z,14.30
2018-09-15T06:58:04.433Z,17.17
2018-09-15T07:00:33.436Z,18.27
2018-09-15T07:03:01.955Z,20.27
2018-09-15T07:05:30.542Z,18.03
2018-09-15T07:08:01.545Z,17.73
2018-09-15T07:10:30.218Z,12.73
2018-09-15T07:12:59.111Z,13.17
2018-09-15T07:15:27.972Z,15.20
2018-09-15T07:17:57.955Z,16.87
2018-09-15T07:20:26.774Z,15.93
2018-09-15T07:22:55.383Z,15.37
2018-09-15T07:25:24.168Z,15.77
2018-09-15T07:27:53.020Z,13.70
2018-09-15T07:30:21.683Z,19.13
2018-09-15T07:32:50.411Z,17.87
2018-09-15T07:35:20.325Z,17.63
2018-09-15T07:37:49.616Z,13.73
2018-09-15T07:40:18.853Z,17.53
2018-09-15T07:42:49.101Z,21.10
2018-09-15T07:45:17.811Z,20.17
2018-09-15T07:47:46.590Z,20.00
2018-09-15T07:50:16.923Z,16.83
2018-09-15T07:52:45.457Z,16.63
2018-09-15T07:55:14.294Z,22.27
2018-09-15T07:57:43.958Z,18.00
2018-09-15T08:00:12.507Z,20.73
2018-09-15T08:02:41.075Z,18.67
2018-09-15T08:05:09.574Z,20.60
2018-09-15T08:07:39.243Z,22.80
2018-09-15T08:10:09.490Z,16.53
2018-09-15T08:12:38.064Z,19.20
2018-09-15T08:15:06.565Z,15.43
2018-09-15T08:17:35.571Z,19.70
2018-09-15T08:20:04.329Z,17.23
2018-09-15T08:22:35.034Z,13.60
2018-09-15T08:25:03.616Z,14.53
2018-09-15T08:27:32.850Z,17.50
2018-09-15T08:30:01.712Z,18.50
2018-09-15T08:32:30.293Z,17.07
2018-09-15T08:34:58.815Z,16.37
2018-09-15T08:37:27.371Z,10.43
2018-09-15T08:39:56.313Z,11.90
2018-09-15T08:42:24.892Z,12.00
2018-09-15T08:44:53.722Z,11.70
2018-09-15T08:47:22.258Z,10.97
2018-09-15T08:49:50.812Z,14.67
2018-09-15T08:52:23.688Z,14.90
2018-09-15T08:54:52.278Z,14.63
2018-09-15T08:57:21.036Z,9.77
2018-09-15T08:59:49.782Z,10.87
2018-09-15T09:02:18.297Z,14.33
2018-09-15T09:04:47.080Z,12.00
2018-09-15T09:07:15.763Z,9.30
2018-09-15T09:09:49.553Z,11.10
2018-09-15T09:12:18.126Z,8.43
2018-09-15T09:14:46.690Z,9.47
2018-09-15T09:17:15.246Z,13.73
2018-09-15T09:19:43.781Z,10.87
2018-09-15T09:22:12.583Z,10.23
2018-09-15T09:24:41.249Z,10.53
2018-09-15T09:27:09.812Z,12.27
2018-09-15T09:29:38.701Z,8.20
2018-09-15T09:32:07.630Z,7.23
2018-09-15T09:34:36.199Z,8.73
2018-09-15T09:37:05.404Z,7.17
2018-09-15T09:39:33.961Z,4.77
2018-09-15T09:42:02.878Z,7.90
2018-09-15T09:44:31.619Z,5.07
2018-09-15T09:47:01.045Z,9.23
2018-09-15T09:49:29.533Z,7.87
2018-09-15T09:51:58.040Z,8.43
2018-09-15T09:54:26.558Z,7.43
2018-09-15T09:57:12.528Z,6.13
2018-09-15T09:59:43.412Z,4.40
2018-09-15T10:02:19.669Z,8.20
2018-09-15T10:04:48.375Z,6.90
2018-09-15T10:07:17.794Z,8.63
2018-09-15T10:09:46.704Z,6.60
2018-09-15T10:12:15.184Z,7.33
2018-09-15T10:14:45.659Z,4.93
2018-09-15T10:17:17.243Z,7.00
2018-09-15T10:19:45.981Z,5.50
2018-09-15T10:22:16.070Z,4.50
2018-09-15T10:24:44.722Z,6.77
2018-09-15T10:27:13.334Z,5.83
2018-09-15T10:29:41.861Z,7.37
2018-09-15T10:32:10.499Z,5.47
2018-09-15T10:34:39.064Z,5.10
2018-09-15T10:37:07.637Z,5.50
2018-09-15T10:39:36.178Z,7.87
2018-09-15T10:44:51.949Z,5.73
2018-09-15T10:47:20.515Z,3.57
2018-09-15T10:49:49.146Z,5.37
2018-09-15T10:52:17.754Z,4.50
2018-09-15T10:54:46.300Z,5.43
2018-09-15T10:57:15.657Z,6.77
2018-09-15T10:59:44.821Z,5.63
2018-09-15T11:02:14.921Z,12.53
2018-09-15T11:04:45.834Z,3.97
2018-09-15T11:07:16.085Z,8.73
2018-09-15T11:09:44.918Z,6.30
2018-09-15T11:12:13.706Z,7.07
2018-09-15T11:14:42.402Z,7.40
2018-09-15T11:17:11.216Z,6.67
2018-09-15T11:19:39.796Z,5.30
2018-09-15T11:22:08.641Z,2.40
2018-09-15T11:24:37.382Z,4.10
2018-09-15T11:27:06.395Z,7.03
2018-09-15T11:29:35.460Z,3.77
2018-09-15T11:32:04.443Z,3.53
2018-09-15T11:34:32.979Z,5.20
2018-09-15T11:37:01.693Z,4.83
2018-09-15T11:39:31.301Z,3.67
2018-09-15T11:42:00.423Z,5.00
2018-09-15T11:44:29.728Z,4.90
2018-09-15T11:46:58.853Z,3.00
2018-09-15T11:49:29.576Z,4.07
2018-09-15T11:51:58.162Z,5.23
2018-09-15T11:54:26.719Z,2.43
2018-09-15T11:56:55.236Z,4.97
2018-09-15T11:59:23.864Z,6.33
2018-09-15T12:01:52.426Z,4.57
2018-09-15T12:04:23.068Z,7.07
2018-09-15T12:06:52.431Z,3.57
2018-09-15T12:09:20.967Z,5.77
2018-09-15T12:11:50.492Z,4.03
2018-09-15T12:14:19.195Z,5.13
2018-09-15T12:16:49.714Z,4.23
2018-09-15T12:19:18.781Z,2.37
2018-09-15T12:21:48.509Z,3.57
2018-09-15T12:24:17.096Z,5.40
2018-09-15T12:26:45.975Z,5.03
2018-09-15T12:29:14.851Z,4.33
2018-09-15T12:31:44.332Z,3.83
2018-09-15T12:34:12.869Z,2.93
2018-09-15T12:36:41.578Z,3.53
2018-09-15T12:39:10.523Z,3.40
2018-09-15T12:41:39.691Z,4.77
2018-09-15T12:44:08.339Z,5.50
2018-09-15T12:46:36.929Z,5.13
2018-09-15T12:49:05.629Z,4.53
2018-09-15T12:51:35.117Z,4.60
2018-09-15T12:54:03.791Z,6.53
2018-09-15T12:56:32.358Z,3.67
2018-09-15T12:59:00.930Z,5.30
2018-09-15T13:01:29.758Z,4.83
2018-09-15T13:03:58.613Z,7.00
2018-09-15T13:06:27.828Z,3.80
2018-09-15T13:08:56.444Z,5.33
2018-09-15T13:11:25.104Z,5.23
2018-09-15T13:13:53.784Z,4.17
2018-09-15T13:16:22.935Z,6.60
2018-09-15T13:18:51.486Z,4.83
2018-09-15T13:21:20.314Z,3.60
2018-09-15T13:23:49.226Z,4.33
2018-09-15T13:26:17.673Z,3.57
2018-09-15T13:28:46.380Z,5.93
2018-09-15T13:31:14.907Z,3.07
2018-09-15T13:33:43.872Z,2.93
2018-09-15T13:36:13.310Z,6.87
2018-09-15T13:38:41.828Z,2.73
2018-09-15T13:42:39.536Z,3.03
2018-09-15T13:45:08.164Z,6.03
2018-09-15T13:47:36.720Z,5.07
2018-09-15T13:50:05.350Z,3.60
2018-09-15T13:52:33.904Z,5.23
2018-09-15T13:55:03.248Z,4.70
2018-09-15T13:57:31.872Z,3.53
2018-09-15T14:00:00.460Z,3.67
2018-09-15T14:02:28.970Z,3.87
2018-09-15T14:04:57.617Z,3.13
2018-09-15T14:07:26.970Z,4.13
2018-09-15T14:09:55.513Z,2.87
2018-09-15T14:12:24.392Z,2.93
2018-09-15T14:14:54.245Z,3.50
2018-09-15T14:17:22.798Z,4.23
2018-09-15T14:19:51.367Z,2.90
2018-09-15T14:22:19.995Z,5.03
2018-09-15T14:24:48.615Z,4.03
2018-09-15T14:27:17.268Z,3.03
2018-09-15T14:29:45.814Z,2.37
2018-09-15T14:32:14.318Z,2.20
2018-09-15T14:34:44.174Z,2.90
2018-09-15T14:37:13.396Z,5.60
2018-09-15T14:39:42.003Z,3.97
2018-09-15T14:42:10.609Z,5.63
2018-09-15T14:44:39.766Z,5.00
2018-09-15T14:47:08.690Z,3.10
2018-09-15T14:49:37.266Z,4.23
2018-09-15T14:52:06.360Z,3.50
2018-09-15T14:54:35.291Z,5.10
2018-09-15T14:57:03.803Z,4.40
2018-09-15T14:59:33.291Z,4.07
2018-09-15T15:02:01.793Z,1.77
2018-09-15T15:04:30.791Z,4.60
2018-09-15T15:06:59.591Z,4.00
2018-09-15T15:09:28.261Z,4.40
2018-09-15T15:11:56.832Z,5.47
2018-09-15T15:14:25.369Z,3.57
2018-09-15T15:16:54.066Z,4.07
2018-09-15T15:19:22.628Z,3.60
2018-09-15T15:21:51.210Z,3.83
2018-09-15T15:24:21.846Z,4.17
2018-09-15T15:26:50.454Z,6.03
2018-09-15T15:29:19.039Z,5.17
2018-09-15T15:31:48.022Z,3.23
2018-09-15T15:34:17.086Z,4.13
2018-09-15T15:36:47.114Z,4.13
2018-09-15T15:39:15.729Z,7.53
2018-09-15T15:41:44.775Z,7.03
2018-09-15T15:44:13.741Z,5.90
2018-09-15T15:46:43.226Z,6.03
2018-09-15T15:49:12.265Z,8.03
2018-09-15T15:51:40.812Z,7.50
2018-09-15T15:54:09.616Z,9.17
2018-09-15T15:56:38.434Z,5.67
2018-09-15T15:59:07.648Z,5.37
2018-09-15T16:01:36.248Z,5.17
2018-09-15T16:04:04.779Z,5.07
2018-09-15T16:06:33.601Z,6.60
2018-09-15T16:09:02.311Z,5.00
2018-09-15T16:11:30.951Z,6.00
2018-09-15T16:13:59.466Z,4.40
2018-09-15T16:16:27.985Z,5.40
2018-09-15T16:18:56.818Z,7.87
2018-09-15T16:21:25.568Z,4.97
2018-09-15T16:23:54.085Z,7.30
2018-09-15T16:26:23.137Z,6.17
2018-09-15T16:28:52.063Z,4.70
2018-09-15T16:31:20.816Z,4.90
2018-09-15T16:33:50.399Z,5.33
2018-09-15T16:36:19.235Z,5.17
2018-09-15T16:38:47.778Z,5.07
2018-09-15T16:41:16.351Z,5.83
2018-09-15T16:43:46.053Z,3.87
2018-09-15T16:46:15.541Z,3.47
2018-09-15T16:48:44.365Z,6.87
2018-09-15T16:51:13.009Z,6.43
2018-09-15T16:53:41.541Z,3.73
2018-09-15T16:56:10.889Z,6.80
2018-09-15T16:58:40.059Z,5.90
2018-09-15T17:01:08.694Z,4.03
2018-09-15T17:03:37.302Z,3.00
2018-09-15T17:06:05.976Z,5.67
2018-09-15T17:08:34.884Z,3.20
2018-09-15T17:11:03.665Z,3.73
2018-09-15T17:13:33.049Z,4.07
2018-09-15T17:16:01.779Z,5.30
2018-09-15T17:18:30.564Z,6.13
2018-09-15T17:20:59.250Z,3.37
2018-09-15T17:23:27.979Z,5.97
2018-09-15T17:25:57.217Z,5.83
2018-09-15T17:28:25.791Z,4.83
2018-09-15T17:30:54.833Z,3.73
2018-09-15T17:33:23.348Z,6.30
2018-09-15T17:35:51.873Z,4.97
2018-09-15T17:38:21.145Z,5.93
2018-09-15T17:40:49.701Z,4.77
2018-09-15T17:43:18.240Z,4.17
2018-09-15T17:45:46.762Z,6.33
2018-09-15T17:48:15.289Z,6.70
2018-09-15T17:50:44.377Z,4.80
2018-09-15T17:53:15.140Z,4.50
2018-09-15T17:55:46.896Z,3.50
2018-09-15T17:58:15.840Z,4.97
2018-09-15T18:00:44.553Z,3.30
2018-09-15T18:03:13.126Z,3.70
2018-09-15T18:05:41.959Z,7.53
2018-09-15T18:08:11.804Z,3.03
2018-09-15T18:10:40.381Z,5.87
2018-09-15T18:13:08.984Z,3.30
2018-09-15T18:15:37.554Z,4.83
2018-09-15T18:18:06.272Z,4.33
2018-09-15T18:20:38.102Z,6.80
2018-09-15T18:23:09.433Z,6.77
2018-09-15T18:25:39.945Z,7.03
2018-09-15T18:28:08.894Z,3.77
2018-09-15T18:30:38.139Z,2.73
2018-09-15T18:33:07.204Z,6.27
2018-09-15T18:35:35.841Z,3.17
2018-09-15T18:38:04.486Z,4.77
2018-09-15T18:40:32.978Z,6.57
2018-09-15T18:43:02.033Z,3.43
2018-09-15T18:45:36.305Z,5.53
2018-09-15T18:48:07.688Z,3.83
2018-09-15T18:53:12.524Z,3.17
2018-09-15T18:55:41.490Z,6.57
2018-09-15T18:58:10.758Z,4.70
2018-09-15T19:00:39.400Z,2.40
2018-09-15T19:03:13.941Z,2.00
2018-09-15T19:05:42.918Z,3.70
2018-09-15T19:08:11.533Z,3.93
2018-09-15T19:10:40.093Z,6.27
2018-09-15T19:13:08.654Z,2.73
2018-09-15T19:15:38.050Z,5.97
2018-09-15T19:18:06.776Z,5.70
2018-09-15T19:20:36.017Z,3.43
2018-09-15T19:23:04.624Z,10.47
2018-09-15T19:25:33.920Z,6.10
2018-09-15T19:28:03.699Z,6.50
2018-09-15T19:30:32.572Z,3.73
2018-09-15T19:33:01.229Z,4.37
2018-09-15T19:35:30.114Z,4.87
2018-09-15T19:37:58.906Z,4.20
2018-09-15T19:40:28.217Z,4.27
2018-09-15T19:42:57.155Z,3.63
2018-09-15T19:45:25.939Z,4.13
2018-09-15T19:47:54.871Z,3.50
2018-09-15T19:50:23.396Z,7.20
2018-09-15T19:52:52.229Z,3.03
2018-09-15T19:55:21.345Z,4.37
2018-09-15T19:57:50.553Z,5.63
2018-09-15T20:00:19.097Z,4.40
2018-09-15T20:02:47.696Z,4.70
2018-09-15T20:05:16.700Z,6.00
2018-09-15T20:07:45.272Z,3.17
2018-09-15T20:10:13.847Z,3.83
2018-09-15T20:12:45.641Z,3.83
2018-09-15T20:15:24.109Z,7.97
2018-09-15T20:17:52.064Z,5.37
2018-09-15T20:20:21.108Z,4.37
2018-09-15T20:22:50.761Z,4.67
2018-09-15T20:25:19.512Z,5.03
2018-09-15T20:27:49.008Z,3.80
2018-09-15T20:30:17.527Z,7.33
2018-09-15T20:32:46.114Z,4.73
2018-09-15T20:35:14.670Z,5.87
2018-09-15T20:37:43.228Z,5.20
2018-09-15T20:40:12.231Z,5.00
2018-09-15T20:42:41.773Z,4.80
2018-09-15T20:45:10.404Z,6.73
2018-09-15T20:47:39.296Z,6.27
2018-09-15T20:50:08.335Z,5.97
2018-09-15T20:52:37.296Z,5.90
2018-09-15T20:55:06.911Z,7.93
2018-09-15T20:57:36.007Z,5.90
2018-09-15T21:00:05.205Z,4.47
2018-09-15T21:02:36.060Z,4.93
2018-09-15T21:05:05.031Z,4.40
2018-09-15T21:07:33.818Z,5.07
2018-09-15T21:10:02.832Z,5.00
2018-09-15T21:12:32.086Z,10.03
2018-09-15T21:15:01.349Z,4.93
2018-09-15T21:17:30.873Z,6.63
2018-09-15T21:19:59.603Z,5.97
2018-09-15T21:22:28.217Z,5.73
2018-09-15T21:24:56.766Z,7.63
2018-09-15T21:27:25.323Z,8.23
2018-09-15T21:29:53.881Z,9.00
2018-09-15T21:32:22.435Z,7.83
2018-09-15T21:34:52.346Z,8.20
2018-09-15T21:37:21.318Z,6.30
2018-09-15T21:39:50.558Z,6.20
2018-09-15T21:42:19.489Z,4.87
2018-09-15T21:44:48.334Z,7.77
2018-09-15T21:47:16.996Z,7.93
2018-09-15T21:49:45.602Z,8.93
2018-09-15T21:52:14.266Z,9.63
2018-09-15T21:54:43.136Z,8.37
2018-09-15T21:57:11.752Z,14.87
2018-09-15T21:59:40.279Z,7.60
2018-09-15T22:02:08.841Z,7.80
2018-09-15T22:04:37.661Z,9.00
2018-09-15T22:07:06.576Z,6.90
2018-09-15T22:09:35.184Z,8.13
2018-09-15T22:12:04.169Z,9.60
2018-09-15T22:14:34.025Z,11.77
2018-09-15T22:17:02.665Z,10.67
2018-09-15T22:19:31.242Z,10.67
2018-09-15T22:22:00.617Z,9.30
2018-09-15T22:24:29.223Z,9.70
2018-09-15T22:26:58.036Z,6.43
2018-09-15T22:29:27.306Z,6.67
2018-09-15T22:31:55.906Z,6.70
2018-09-15T22:34:24.500Z,5.63
2018-09-15T22:36:53.202Z,6.23
2018-09-15T22:39:22.099Z,6.77
2018-09-15T22:41:51.964Z,6.90
2018-09-15T22:44:20.782Z,6.33
2018-09-15T22:46:49.329Z,7.33
2018-09-15T22:49:18.017Z,6.43
2018-09-15T22:51:46.641Z,4.90
2018-09-15T22:54:15.490Z,5.33
2018-09-15T22:56:44.013Z,5.57
2018-09-15T22:59:13.199Z,5.53
2018-09-15T23:01:42.041Z,7.20
2018-09-15T23:04:12.479Z,6.57
2018-09-15T23:06:41.211Z,8.60
2018-09-15T23:09:11.129Z,5.17
2018-09-15T23:11:40.015Z,6.70
2018-09-15T23:14:09.145Z,4.57
2018-09-15T23:16:37.810Z,6.33
2018-09-15T23:19:07.809Z,5.63
2018-09-15T23:21:36.603Z,5.80
2018-09-15T23:24:05.588Z,5.40
2018-09-15T23:26:35.004Z,7.07
2018-09-15T23:29:04.079Z,6.17
2018-09-15T23:31:32.886Z,7.97
2018-09-15T23:34:01.740Z,5.40
2018-09-15T23:36:30.710Z,6.90
2018-09-15T23:38:59.530Z,6.13
2018-09-15T23:41:29.493Z,7.47
2018-09-15T23:43:58.040Z,5.80
2018-09-15T23:46:27.333Z,7.60
2018-09-15T23:48:56.000Z,6.27
2018-09-15T23:51:25.114Z,5.53
2018-09-15T23:53:54.116Z,8.07
2018-09-15T23:56:22.828Z,6.37
2018-09-15T23:58:51.492Z,6.17
